sensor_id;sensor_type;location;lat;lon;timestamp;temperature;humidity
19224;DHT22;9746;47.180;9.776;2024-03-06T00:00:02;4.80;99.90
19224;DHT22;9746;47.180;9.776;2024-03-06T00:02:31;4.70;99.90
19224;DHT22;9746;47.180;9.776;2024-03-06T00:04:59;4.70;99.90
19224;DHT22;9746;47.180;9.776;2024-03-06T00:07:26;4.60;99.90
19224;DHT22;9746;47.180;9.776;2024-03-06T00:09:54;4.50;99.90
19224;DHT22;9746;47.180;9.776;2024-03-06T00:12:21;4.50;99.90
19224;DHT22;9746;47.180;9.776;2024-03-06T00:14:49;4.60;99.90
19224;DHT22;9746;47.180;9.776;2024-03-06T00:17:16;4.60;99.90
19224;DHT22;9746;47.180;9.776;2024-03-06T00:20:20;4.60;99.90
19224;DHT22;9746;47.180;9.776;2024-03-06T00:22:48;4.70;99.90
19224;DHT22;9746;47.180;9.776;2024-03-06T00:25:15;4.70;99.90
19224;DHT22;9746;47.180;9.776;2024-03-06T00:28:06;4.70;99.90
19224;DHT22;9746;47.180;9.776;2024-03-06T00:30:33;4.70;99.90
19224;DHT22;9746;47.180;9.776;2024-03-06T00:33:17;4.70;99.90
19224;DHT22;9746;47.180;9.776;2024-03-06T00:35:46;4.70;99.90
19224;DHT22;9746;47.180;9.776;2024-03-06T00:38:13;4.70;99.90
19224;DHT22;9746;47.180;9.776;2024-03-06T00:40:41;4.80;99.90
19224;DHT22;9746;47.180;9.776;2024-03-06T00:43:15;4.80;99.90
19224;DHT22;9746;47.180;9.776;2024-03-06T00:45:42;4.80;99.90
19224;DHT22;9746;47.180;9.776;2024-03-06T00:48:17;4.80;99.90
19224;DHT22;9746;47.180;9.776;2024-03-06T00:50:47;4.80;99.90
19224;DHT22;9746;47.180;9.776;2024-03-06T00:53:26;4.80;99.90
19224;DHT22;9746;47.180;9.776;2024-03-06T00:55:53;4.80;99.90
19224;DHT22;9746;47.180;9.776;2024-03-06T00:58:33;4.80;99.90
19224;DHT22;9746;47.180;9.776;2024-03-06T01:01:01;4.80;99.90
19224;DHT22;9746;47.180;9.776;2024-03-06T01:03:42;4.90;99.90
19224;DHT22;9746;47.180;9.776;2024-03-06T01:06:11;4.80;99.90
19224;DHT22;9746;47.180;9.776;2024-03-06T01:08:55;4.70;99.90
19224;DHT22;9746;47.180;9.776;2024-03-06T01:11:23;4.70;99.90
19224;DHT22;9746;47.180;9.776;2024-03-06T01:13:55;4.70;99.90
19224;DHT22;9746;47.180;9.776;2024-03-06T01:16:23;4.70;99.90
19224;DHT22;9746;47.180;9.776;2024-03-06T01:18:58;4.80;99.90
19224;DHT22;9746;47.180;9.776;2024-03-06T01:21:27;4.80;99.90
19224;DHT22;9746;47.180;9.776;2024-03-06T01:23:57;4.80;99.90
19224;DHT22;9746;47.180;9.776;2024-03-06T01:26:25;4.80;99.90
19224;DHT22;9746;47.180;9.776;2024-03-06T01:32:14;4.80;99.90
19224;DHT22;9746;47.180;9.776;2024-03-06T01:34:57;4.80;99.90
19224;DHT22;9746;47.180;9.776;2024-03-06T01:37:26;4.80;99.90
19224;DHT22;9746;47.180;9.776;2024-03-06T01:39:58;4.80;99.90
19224;DHT22;9746;47.180;9.776;2024-03-06T01:42:26;4.80;99.90
19224;DHT22;9746;47.180;9.776;2024-03-06T01:45:00;4.80;99.90
19224;DHT22;9746;47.180;9.776;2024-03-06T01:47:27;4.70;99.90
19224;DHT22;9746;47.180;9.776;2024-03-06T01:50:06;4.70;99.90
19224;DHT22;9746;47.180;9.776;2024-03-06T01:52:39;4.70;99.90
19224;DHT22;9746;47.180;9.776;2024-03-06T01:55:23;4.70;99.90
19224;DHT22;9746;47.180;9.776;2024-03-06T01:57:51;4.70;99.90
19224;DHT22;9746;47.180;9.776;2024-03-06T02:00:30;4.70;99.90
19224;DHT22;9746;47.180;9.776;2024-03-06T02:02:58;4.70;99.90
19224;DHT22;9746;47.180;9.776;2024-03-06T02:08:03;4.60;99.90
19224;DHT22;9746;47.180;9.776;2024-03-06T02:10:31;4.60;99.90
19224;DHT22;9746;47.180;9.776;2024-03-06T02:13:23;4.60;99.90
19224;DHT22;9746;47.180;9.776;2024-03-06T02:15:56;4.60;99.90
19224;DHT22;9746;47.180;9.776;2024-03-06T02:18:24;4.70;99.90
19224;DHT22;9746;47.180;9.776;2024-03-06T02:20:53;4.60;99.90
19224;DHT22;9746;47.180;9.776;2024-03-06T02:23:20;4.60;99.90
19224;DHT22;9746;47.180;9.776;2024-03-06T02:25:48;4.60;99.90
19224;DHT22;9746;47.180;9.776;2024-03-06T02:28:18;4.60;99.90
19224;DHT22;9746;47.180;9.776;2024-03-06T02:30:50;4.60;99.90
19224;DHT22;9746;47.180;9.776;2024-03-06T02:33:20;4.60;99.90
19224;DHT22;9746;47.180;9.776;2024-03-06T02:35:48;4.60;99.90
19224;DHT22;9746;47.180;9.776;2024-03-06T02:38:33;4.50;99.90
19224;DHT22;9746;47.180;9.776;2024-03-06T02:41:03;4.50;99.90
19224;DHT22;9746;47.180;9.776;2024-03-06T02:43:32;4.50;99.90
19224;DHT22;9746;47.180;9.776;2024-03-06T02:46:10;4.40;99.90
19224;DHT22;9746;47.180;9.776;2024-03-06T02:48:37;4.40;99.90
19224;DHT22;9746;47.180;9.776;2024-03-06T02:51:05;4.40;99.90
19224;DHT22;9746;47.180;9.776;2024-03-06T02:53:35;4.40;99.90
19224;DHT22;9746;47.180;9.776;2024-03-06T02:56:03;4.40;99.90
19224;DHT22;9746;47.180;9.776;2024-03-06T02:58:31;4.50;99.90
19224;DHT22;9746;47.180;9.776;2024-03-06T03:00:58;4.50;99.90
19224;DHT22;9746;47.180;9.776;2024-03-06T03:03:37;4.50;99.90
19224;DHT22;9746;47.180;9.776;2024-03-06T03:06:07;4.50;99.90
19224;DHT22;9746;47.180;9.776;2024-03-06T03:08:36;4.50;99.90
19224;DHT22;9746;47.180;9.776;2024-03-06T03:11:04;4.50;99.90
19224;DHT22;9746;47.180;9.776;2024-03-06T03:13:40;4.50;99.90
19224;DHT22;9746;47.180;9.776;2024-03-06T03:16:07;4.40;99.90
19224;DHT22;9746;47.180;9.776;2024-03-06T03:18:43;4.40;99.90
19224;DHT22;9746;47.180;9.776;2024-03-06T03:21:11;4.40;99.90
19224;DHT22;9746;47.180;9.776;2024-03-06T03:23:40;4.40;99.90
19224;DHT22;9746;47.180;9.776;2024-03-06T03:26:08;4.40;99.90
19224;DHT22;9746;47.180;9.776;2024-03-06T03:28:38;4.40;99.90
19224;DHT22;9746;47.180;9.776;2024-03-06T03:31:07;4.40;99.90
19224;DHT22;9746;47.180;9.776;2024-03-06T03:33:35;4.30;99.90
19224;DHT22;9746;47.180;9.776;2024-03-06T03:36:05;4.30;99.90
19224;DHT22;9746;47.180;9.776;2024-03-06T03:38:41;4.30;99.90
19224;DHT22;9746;47.180;9.776;2024-03-06T03:41:09;4.30;99.90
19224;DHT22;9746;47.180;9.776;2024-03-06T03:43:45;4.30;99.90
19224;DHT22;9746;47.180;9.776;2024-03-06T03:46:13;4.30;99.90
19224;DHT22;9746;47.180;9.776;2024-03-06T03:48:47;4.30;99.90
19224;DHT22;9746;47.180;9.776;2024-03-06T03:51:15;4.30;99.90
19224;DHT22;9746;47.180;9.776;2024-03-06T03:54:03;4.30;99.90
19224;DHT22;9746;47.180;9.776;2024-03-06T03:56:30;4.20;99.90
19224;DHT22;9746;47.180;9.776;2024-03-06T03:58:58;4.20;99.90
19224;DHT22;9746;47.180;9.776;2024-03-06T04:01:25;4.20;99.90
19224;DHT22;9746;47.180;9.776;2024-03-06T04:03:53;4.20;99.90
19224;DHT22;9746;47.180;9.776;2024-03-06T04:06:20;4.20;99.90
19224;DHT22;9746;47.180;9.776;2024-03-06T04:11:50;4.10;99.90
19224;DHT22;9746;47.180;9.776;2024-03-06T04:14:17;4.10;99.90
19224;DHT22;9746;47.180;9.776;2024-03-06T04:16:46;4.00;99.90
19224;DHT22;9746;47.180;9.776;2024-03-06T04:19:14;4.00;99.90
19224;DHT22;9746;47.180;9.776;2024-03-06T04:21:41;4.00;99.90
19224;DHT22;9746;47.180;9.776;2024-03-06T04:24:09;4.00;99.90
19224;DHT22;9746;47.180;9.776;2024-03-06T04:26:37;4.00;99.90
19224;DHT22;9746;47.180;9.776;2024-03-06T04:29:06;4.00;99.90
19224;DHT22;9746;47.180;9.776;2024-03-06T04:31:35;4.00;99.90
19224;DHT22;9746;47.180;9.776;2024-03-06T04:34:16;4.00;99.90
19224;DHT22;9746;47.180;9.776;2024-03-06T04:36:43;4.00;99.90
19224;DHT22;9746;47.180;9.776;2024-03-06T04:39:11;4.00;99.90
19224;DHT22;9746;47.180;9.776;2024-03-06T04:41:38;4.00;99.90
19224;DHT22;9746;47.180;9.776;2024-03-06T04:44:25;4.00;99.90
19224;DHT22;9746;47.180;9.776;2024-03-06T04:47:13;4.00;99.90
19224;DHT22;9746;47.180;9.776;2024-03-06T04:49:40;4.00;99.90
19224;DHT22;9746;47.180;9.776;2024-03-06T04:52:14;4.00;99.90
19224;DHT22;9746;47.180;9.776;2024-03-06T04:54:42;4.00;99.90
19224;DHT22;9746;47.180;9.776;2024-03-06T04:57:11;4.00;99.90
19224;DHT22;9746;47.180;9.776;2024-03-06T04:59:40;4.00;99.90
19224;DHT22;9746;47.180;9.776;2024-03-06T05:02:10;4.00;99.90
19224;DHT22;9746;47.180;9.776;2024-03-06T05:04:37;4.00;99.90
19224;DHT22;9746;47.180;9.776;2024-03-06T05:07:05;4.00;99.90
19224;DHT22;9746;47.180;9.776;2024-03-06T05:09:32;4.00;99.90
19224;DHT22;9746;47.180;9.776;2024-03-06T05:12:13;4.00;99.90
19224;DHT22;9746;47.180;9.776;2024-03-06T05:14:42;4.00;99.90
19224;DHT22;9746;47.180;9.776;2024-03-06T05:17:20;4.00;99.90
19224;DHT22;9746;47.180;9.776;2024-03-06T05:19:49;4.10;99.90
19224;DHT22;9746;47.180;9.776;2024-03-06T05:22:23;4.00;99.90
19224;DHT22;9746;47.180;9.776;2024-03-06T05:24:52;4.00;99.90
19224;DHT22;9746;47.180;9.776;2024-03-06T05:27:48;4.10;99.90
19224;DHT22;9746;47.180;9.776;2024-03-06T05:30:17;4.10;99.90
19224;DHT22;9746;47.180;9.776;2024-03-06T05:32:52;4.10;99.90
19224;DHT22;9746;47.180;9.776;2024-03-06T05:35:20;4.00;99.90
19224;DHT22;9746;47.180;9.776;2024-03-06T05:37:47;4.00;99.90
19224;DHT22;9746;47.180;9.776;2024-03-06T05:40:15;4.00;99.90
19224;DHT22;9746;47.180;9.776;2024-03-06T05:42:48;4.00;99.90
19224;DHT22;9746;47.180;9.776;2024-03-06T05:45:18;3.90;99.90
19224;DHT22;9746;47.180;9.776;2024-03-06T05:47:56;3.90;99.90
19224;DHT22;9746;47.180;9.776;2024-03-06T05:50:23;3.90;99.90
19224;DHT22;9746;47.180;9.776;2024-03-06T05:52:51;3.90;99.90
19224;DHT22;9746;47.180;9.776;2024-03-06T05:55:19;3.90;99.90
19224;DHT22;9746;47.180;9.776;2024-03-06T05:57:53;3.90;99.90
19224;DHT22;9746;47.180;9.776;2024-03-06T06:00:22;3.90;99.90
19224;DHT22;9746;47.180;9.776;2024-03-06T06:02:51;3.80;99.90
19224;DHT22;9746;47.180;9.776;2024-03-06T06:05:19;3.90;99.90
19224;DHT22;9746;47.180;9.776;2024-03-06T06:07:51;3.90;99.90
19224;DHT22;9746;47.180;9.776;2024-03-06T06:10:18;3.90;99.90
19224;DHT22;9746;47.180;9.776;2024-03-06T06:12:54;3.90;99.90
19224;DHT22;9746;47.180;9.776;2024-03-06T06:15:24;4.00;99.90
19224;DHT22;9746;47.180;9.776;2024-03-06T06:17:52;4.00;99.90
19224;DHT22;9746;47.180;9.776;2024-03-06T06:20:20;4.00;99.90
19224;DHT22;9746;47.180;9.776;2024-03-06T06:22:47;4.00;99.90
19224;DHT22;9746;47.180;9.776;2024-03-06T06:25:15;3.90;99.90
19224;DHT22;9746;47.180;9.776;2024-03-06T06:27:53;3.90;99.90
19224;DHT22;9746;47.180;9.776;2024-03-06T06:30:25;3.90;99.90
19224;DHT22;9746;47.180;9.776;2024-03-06T06:33:02;4.00;99.90
19224;DHT22;9746;47.180;9.776;2024-03-06T06:35:30;4.00;99.90
19224;DHT22;9746;47.180;9.776;2024-03-06T06:38:13;4.00;99.90
19224;DHT22;9746;47.180;9.776;2024-03-06T06:40:42;4.10;99.90
19224;DHT22;9746;47.180;9.776;2024-03-06T06:43:10;4.00;99.90
19224;DHT22;9746;47.180;9.776;2024-03-06T06:45:40;4.10;99.90
19224;DHT22;9746;47.180;9.776;2024-03-06T06:48:07;4.10;99.90
19224;DHT22;9746;47.180;9.776;2024-03-06T06:50:36;4.20;99.90
19224;DHT22;9746;47.180;9.776;2024-03-06T06:53:04;4.10;99.90
19224;DHT22;9746;47.180;9.776;2024-03-06T06:55:32;4.20;99.90
19224;DHT22;9746;47.180;9.776;2024-03-06T06:58:11;4.20;99.90
19224;DHT22;9746;47.180;9.776;2024-03-06T07:00:40;4.30;99.90
19224;DHT22;9746;47.180;9.776;2024-03-06T07:03:25;4.30;99.90
19224;DHT22;9746;47.180;9.776;2024-03-06T07:05:55;4.30;99.90
19224;DHT22;9746;47.180;9.776;2024-03-06T07:08:33;4.30;99.90
19224;DHT22;9746;47.180;9.776;2024-03-06T07:11:01;4.30;99.90
19224;DHT22;9746;47.180;9.776;2024-03-06T07:13:29;4.20;99.90
19224;DHT22;9746;47.180;9.776;2024-03-06T07:15:58;4.30;99.90
19224;DHT22;9746;47.180;9.776;2024-03-06T07:18:32;4.30;99.90
19224;DHT22;9746;47.180;9.776;2024-03-06T07:21:00;4.30;99.90
19224;DHT22;9746;47.180;9.776;2024-03-06T07:23:28;4.30;99.90
19224;DHT22;9746;47.180;9.776;2024-03-06T07:25:55;4.30;99.90
19224;DHT22;9746;47.180;9.776;2024-03-06T07:28:24;4.40;99.90
19224;DHT22;9746;47.180;9.776;2024-03-06T07:30:52;4.40;99.90
19224;DHT22;9746;47.180;9.776;2024-03-06T07:36:28;4.40;99.90
19224;DHT22;9746;47.180;9.776;2024-03-06T07:39:15;4.40;99.90
19224;DHT22;9746;47.180;9.776;2024-03-06T07:41:43;4.40;99.90
19224;DHT22;9746;47.180;9.776;2024-03-06T07:44:24;4.50;99.90
19224;DHT22;9746;47.180;9.776;2024-03-06T07:46:52;4.50;99.90
19224;DHT22;9746;47.180;9.776;2024-03-06T07:49:30;4.50;99.90
19224;DHT22;9746;47.180;9.776;2024-03-06T07:51:59;4.60;99.90
19224;DHT22;9746;47.180;9.776;2024-03-06T07:57:38;4.60;99.90
19224;DHT22;9746;47.180;9.776;2024-03-06T08:06:41;4.70;99.90
19224;DHT22;9746;47.180;9.776;2024-03-06T08:12:32;4.70;99.90
19224;DHT22;9746;47.180;9.776;2024-03-06T08:18:06;4.70;99.90
19224;DHT22;9746;47.180;9.776;2024-03-06T08:20:36;4.70;99.90
19224;DHT22;9746;47.180;9.776;2024-03-06T08:23:05;4.80;99.90
19224;DHT22;9746;47.180;9.776;2024-03-06T08:26:09;4.90;99.90
19224;DHT22;9746;47.180;9.776;2024-03-06T08:32:00;5.00;99.90
19224;DHT22;9746;47.180;9.776;2024-03-06T08:37:51;5.30;99.90
19224;DHT22;9746;47.180;9.776;2024-03-06T08:43:41;5.40;99.90
19224;DHT22;9746;47.180;9.776;2024-03-06T08:46:09;5.40;99.90
19224;DHT22;9746;47.180;9.776;2024-03-06T08:48:38;5.50;99.90
19224;DHT22;9746;47.180;9.776;2024-03-06T08:51:05;5.60;99.90
19224;DHT22;9746;47.180;9.776;2024-03-06T08:53:37;5.70;99.90
19224;DHT22;9746;47.180;9.776;2024-03-06T08:56:06;5.70;99.90
19224;DHT22;9746;47.180;9.776;2024-03-06T08:58:33;5.70;99.90
19224;DHT22;9746;47.180;9.776;2024-03-06T09:01:01;5.70;99.90
19224;DHT22;9746;47.180;9.776;2024-03-06T09:03:31;5.70;99.90
19224;DHT22;9746;47.180;9.776;2024-03-06T09:06:00;5.70;99.90
19224;DHT22;9746;47.180;9.776;2024-03-06T09:08:28;5.80;99.90
19224;DHT22;9746;47.180;9.776;2024-03-06T09:10:56;5.80;99.90
19224;DHT22;9746;47.180;9.776;2024-03-06T09:13:24;5.70;99.90
19224;DHT22;9746;47.180;9.776;2024-03-06T09:16:06;5.70;99.90
19224;DHT22;9746;47.180;9.776;2024-03-06T09:18:33;5.70;99.90
19224;DHT22;9746;47.180;9.776;2024-03-06T09:21:03;5.70;99.90
19224;DHT22;9746;47.180;9.776;2024-03-06T09:23:30;5.70;99.90
19224;DHT22;9746;47.180;9.776;2024-03-06T09:26:00;5.70;99.90
19224;DHT22;9746;47.180;9.776;2024-03-06T09:28:28;5.80;99.90
19224;DHT22;9746;47.180;9.776;2024-03-06T09:30:55;5.90;99.90
19224;DHT22;9746;47.180;9.776;2024-03-06T09:33:23;5.90;99.90
19224;DHT22;9746;47.180;9.776;2024-03-06T09:35:59;6.00;99.90
19224;DHT22;9746;47.180;9.776;2024-03-06T09:38:28;6.00;99.90
19224;DHT22;9746;47.180;9.776;2024-03-06T09:44:18;6.00;99.90
19224;DHT22;9746;47.180;9.776;2024-03-06T09:46:50;6.00;99.90
19224;DHT22;9746;47.180;9.776;2024-03-06T09:49:18;6.00;99.90
19224;DHT22;9746;47.180;9.776;2024-03-06T09:54:50;6.00;99.90
19224;DHT22;9746;47.180;9.776;2024-03-06T10:00:28;6.10;99.90
19224;DHT22;9746;47.180;9.776;2024-03-06T10:06:14;6.10;99.90
19224;DHT22;9746;47.180;9.776;2024-03-06T10:12:05;6.20;99.90
19224;DHT22;9746;47.180;9.776;2024-03-06T10:14:33;6.10;99.90
19224;DHT22;9746;47.180;9.776;2024-03-06T10:20:23;6.10;99.90
19224;DHT22;9746;47.180;9.776;2024-03-06T10:26:08;6.30;99.90
19224;DHT22;9746;47.180;9.776;2024-03-06T10:29:07;6.20;99.90
19224;DHT22;9746;47.180;9.776;2024-03-06T10:31:35;6.20;99.90
19224;DHT22;9746;47.180;9.776;2024-03-06T10:34:11;6.30;99.90
19224;DHT22;9746;47.180;9.776;2024-03-06T10:36:39;6.30;99.90
19224;DHT22;9746;47.180;9.776;2024-03-06T10:42:30;6.40;99.90
19224;DHT22;9746;47.180;9.776;2024-03-06T10:45:00;6.40;99.90
19224;DHT22;9746;47.180;9.776;2024-03-06T10:47:47;6.30;99.90
19224;DHT22;9746;47.180;9.776;2024-03-06T10:50:15;6.30;99.90
19224;DHT22;9746;47.180;9.776;2024-03-06T10:53:07;6.40;99.90
19224;DHT22;9746;47.180;9.776;2024-03-06T10:55:36;6.40;99.90
19224;DHT22;9746;47.180;9.776;2024-03-06T10:58:41;6.40;99.90
19224;DHT22;9746;47.180;9.776;2024-03-06T11:01:11;6.50;99.90
19224;DHT22;9746;47.180;9.776;2024-03-06T11:03:54;6.60;99.90
19224;DHT22;9746;47.180;9.776;2024-03-06T11:06:22;6.60;99.90
19224;DHT22;9746;47.180;9.776;2024-03-06T11:09:21;6.60;99.90
19224;DHT22;9746;47.180;9.776;2024-03-06T11:11:50;6.60;99.90
19224;DHT22;9746;47.180;9.776;2024-03-06T11:14:30;6.60;99.90
19224;DHT22;9746;47.180;9.776;2024-03-06T11:17:02;6.50;99.90
19224;DHT22;9746;47.180;9.776;2024-03-06T11:19:31;6.60;99.90
19224;DHT22;9746;47.180;9.776;2024-03-06T11:21:59;6.50;99.90
19224;DHT22;9746;47.180;9.776;2024-03-06T11:24:36;6.40;99.90
19224;DHT22;9746;47.180;9.776;2024-03-06T11:27:07;6.40;99.90
19224;DHT22;9746;47.180;9.776;2024-03-06T11:30:09;6.40;99.90
19224;DHT22;9746;47.180;9.776;2024-03-06T11:33:03;6.40;99.90
19224;DHT22;9746;47.180;9.776;2024-03-06T11:35:30;6.50;99.90
19224;DHT22;9746;47.180;9.776;2024-03-06T11:38:00;6.50;99.90
19224;DHT22;9746;47.180;9.776;2024-03-06T11:40:29;6.60;99.90
19224;DHT22;9746;47.180;9.776;2024-03-06T11:43:21;6.60;99.90
19224;DHT22;9746;47.180;9.776;2024-03-06T11:45:52;6.60;99.90
19224;DHT22;9746;47.180;9.776;2024-03-06T11:48:35;6.50;99.90
19224;DHT22;9746;47.180;9.776;2024-03-06T11:51:04;6.60;99.90
19224;DHT22;9746;47.180;9.776;2024-03-06T11:53:49;6.50;99.90
19224;DHT22;9746;47.180;9.776;2024-03-06T11:56:18;6.50;99.90
19224;DHT22;9746;47.180;9.776;2024-03-06T11:58:49;6.60;99.90
19224;DHT22;9746;47.180;9.776;2024-03-06T12:01:17;6.60;99.90
19224;DHT22;9746;47.180;9.776;2024-03-06T12:03:48;6.60;99.90
19224;DHT22;9746;47.180;9.776;2024-03-06T12:06:16;6.60;99.90
19224;DHT22;9746;47.180;9.776;2024-03-06T12:08:54;6.60;99.90
19224;DHT22;9746;47.180;9.776;2024-03-06T12:11:22;6.50;99.90
19224;DHT22;9746;47.180;9.776;2024-03-06T12:13:52;6.50;99.90
19224;DHT22;9746;47.180;9.776;2024-03-06T12:16:20;6.50;99.90
19224;DHT22;9746;47.180;9.776;2024-03-06T12:19:07;6.50;99.90
19224;DHT22;9746;47.180;9.776;2024-03-06T12:21:35;6.50;99.90
19224;DHT22;9746;47.180;9.776;2024-03-06T12:24:05;6.60;99.90
19224;DHT22;9746;47.180;9.776;2024-03-06T12:26:33;6.60;99.90
19224;DHT22;9746;47.180;9.776;2024-03-06T12:29:12;6.60;99.90
19224;DHT22;9746;47.180;9.776;2024-03-06T12:31:41;6.60;99.90
19224;DHT22;9746;47.180;9.776;2024-03-06T12:34:36;6.70;99.90
19224;DHT22;9746;47.180;9.776;2024-03-06T12:37:08;6.70;99.90
19224;DHT22;9746;47.180;9.776;2024-03-06T12:39:47;6.70;99.90
19224;DHT22;9746;47.180;9.776;2024-03-06T12:42:15;6.70;99.90
19224;DHT22;9746;47.180;9.776;2024-03-06T12:45:01;6.70;99.90
19224;DHT22;9746;47.180;9.776;2024-03-06T12:47:29;6.80;99.90
19224;DHT22;9746;47.180;9.776;2024-03-06T12:50:10;6.80;99.90
19224;DHT22;9746;47.180;9.776;2024-03-06T12:52:47;6.90;99.90
19224;DHT22;9746;47.180;9.776;2024-03-06T12:55:15;7.00;99.90
19224;DHT22;9746;47.180;9.776;2024-03-06T12:57:43;7.00;99.90
19224;DHT22;9746;47.180;9.776;2024-03-06T13:00:11;7.00;99.90
19224;DHT22;9746;47.180;9.776;2024-03-06T13:02:43;7.00;99.90
19224;DHT22;9746;47.180;9.776;2024-03-06T13:05:13;7.00;99.90
19224;DHT22;9746;47.180;9.776;2024-03-06T13:07:43;7.10;99.90
19224;DHT22;9746;47.180;9.776;2024-03-06T13:10:12;7.20;99.90
19224;DHT22;9746;47.180;9.776;2024-03-06T13:12:41;7.20;99.90
19224;DHT22;9746;47.180;9.776;2024-03-06T13:15:10;7.30;99.90
19224;DHT22;9746;47.180;9.776;2024-03-06T13:17:38;7.20;99.90
19224;DHT22;9746;47.180;9.776;2024-03-06T13:20:27;7.20;99.90
19224;DHT22;9746;47.180;9.776;2024-03-06T13:22:56;7.10;99.90
19224;DHT22;9746;47.180;9.776;2024-03-06T13:25:24;7.10;99.90
19224;DHT22;9746;47.180;9.776;2024-03-06T13:27:52;7.10;99.90
19224;DHT22;9746;47.180;9.776;2024-03-06T13:30:20;7.00;99.90
19224;DHT22;9746;47.180;9.776;2024-03-06T13:32:49;7.00;99.90
19224;DHT22;9746;47.180;9.776;2024-03-06T13:35:18;7.00;99.90
19224;DHT22;9746;47.180;9.776;2024-03-06T13:37:47;7.00;99.90
19224;DHT22;9746;47.180;9.776;2024-03-06T13:40:24;7.10;99.90
19224;DHT22;9746;47.180;9.776;2024-03-06T13:42:52;7.00;99.90
19224;DHT22;9746;47.180;9.776;2024-03-06T13:45:22;7.10;99.90
19224;DHT22;9746;47.180;9.776;2024-03-06T13:47:49;7.10;99.90
19224;DHT22;9746;47.180;9.776;2024-03-06T13:50:24;7.10;99.90
19224;DHT22;9746;47.180;9.776;2024-03-06T13:52:55;7.10;99.90
19224;DHT22;9746;47.180;9.776;2024-03-06T13:55:31;7.10;99.90
19224;DHT22;9746;47.180;9.776;2024-03-06T13:57:59;7.10;99.90
19224;DHT22;9746;47.180;9.776;2024-03-06T14:03:33;7.00;99.90
19224;DHT22;9746;47.180;9.776;2024-03-06T14:06:04;7.00;99.90
19224;DHT22;9746;47.180;9.776;2024-03-06T14:08:53;7.00;99.90
19224;DHT22;9746;47.180;9.776;2024-03-06T14:11:21;7.00;99.90
19224;DHT22;9746;47.180;9.776;2024-03-06T14:13:50;7.00;99.90
19224;DHT22;9746;47.180;9.776;2024-03-06T14:16:17;6.90;99.90
19224;DHT22;9746;47.180;9.776;2024-03-06T14:21:23;6.80;99.90
19224;DHT22;9746;47.180;9.776;2024-03-06T14:23:51;6.70;99.90
19224;DHT22;9746;47.180;9.776;2024-03-06T14:26:23;6.60;99.90
19224;DHT22;9746;47.180;9.776;2024-03-06T14:28:50;6.50;99.90
19224;DHT22;9746;47.180;9.776;2024-03-06T14:31:19;6.60;99.90
19224;DHT22;9746;47.180;9.776;2024-03-06T14:33:46;6.60;99.90
19224;DHT22;9746;47.180;9.776;2024-03-06T14:36:16;6.60;99.90
19224;DHT22;9746;47.180;9.776;2024-03-06T14:38:47;6.60;99.90
19224;DHT22;9746;47.180;9.776;2024-03-06T14:41:15;6.60;99.90
19224;DHT22;9746;47.180;9.776;2024-03-06T14:43:46;6.60;99.90
19224;DHT22;9746;47.180;9.776;2024-03-06T14:46:15;6.50;99.90
19224;DHT22;9746;47.180;9.776;2024-03-06T14:48:44;6.50;99.90
19224;DHT22;9746;47.180;9.776;2024-03-06T14:51:12;6.40;99.90
19224;DHT22;9746;47.180;9.776;2024-03-06T14:53:39;6.30;99.90
19224;DHT22;9746;47.180;9.776;2024-03-06T14:56:16;6.20;99.90
19224;DHT22;9746;47.180;9.776;2024-03-06T14:58:45;6.10;99.90
19224;DHT22;9746;47.180;9.776;2024-03-06T15:01:14;6.00;99.90
19224;DHT22;9746;47.180;9.776;2024-03-06T15:03:42;6.00;99.90
19224;DHT22;9746;47.180;9.776;2024-03-06T15:06:12;6.00;99.90
19224;DHT22;9746;47.180;9.776;2024-03-06T15:08:40;6.00;99.90
19224;DHT22;9746;47.180;9.776;2024-03-06T15:11:19;6.10;99.90
19224;DHT22;9746;47.180;9.776;2024-03-06T15:13:50;6.20;99.90
19224;DHT22;9746;47.180;9.776;2024-03-06T15:16:19;6.20;99.90
19224;DHT22;9746;47.180;9.776;2024-03-06T15:18:48;6.20;99.90
19224;DHT22;9746;47.180;9.776;2024-03-06T15:21:21;6.20;99.90
19224;DHT22;9746;47.180;9.776;2024-03-06T15:23:53;6.20;99.90
19224;DHT22;9746;47.180;9.776;2024-03-06T15:26:29;6.20;99.90
19224;DHT22;9746;47.180;9.776;2024-03-06T15:28:58;6.30;99.90
19224;DHT22;9746;47.180;9.776;2024-03-06T15:31:25;6.30;99.90
19224;DHT22;9746;47.180;9.776;2024-03-06T15:33:53;6.20;99.90
19224;DHT22;9746;47.180;9.776;2024-03-06T15:36:21;6.20;99.90
19224;DHT22;9746;47.180;9.776;2024-03-06T15:38:48;6.20;99.90
19224;DHT22;9746;47.180;9.776;2024-03-06T15:41:17;6.20;99.90
19224;DHT22;9746;47.180;9.776;2024-03-06T15:43:49;6.20;99.90
19224;DHT22;9746;47.180;9.776;2024-03-06T15:46:18;6.20;99.90
19224;DHT22;9746;47.180;9.776;2024-03-06T15:48:46;6.10;99.90
19224;DHT22;9746;47.180;9.776;2024-03-06T15:51:17;6.10;99.90
19224;DHT22;9746;47.180;9.776;2024-03-06T15:53:45;6.00;99.90
19224;DHT22;9746;47.180;9.776;2024-03-06T15:56:16;6.00;99.90
19224;DHT22;9746;47.180;9.776;2024-03-06T15:58:48;5.90;99.90
19224;DHT22;9746;47.180;9.776;2024-03-06T16:01:18;5.80;99.90
19224;DHT22;9746;47.180;9.776;2024-03-06T16:03:45;5.70;99.90
19224;DHT22;9746;47.180;9.776;2024-03-06T16:06:13;5.70;99.90
19224;DHT22;9746;47.180;9.776;2024-03-06T16:08:43;5.70;99.90
19224;DHT22;9746;47.180;9.776;2024-03-06T16:11:12;5.70;99.90
19224;DHT22;9746;47.180;9.776;2024-03-06T16:13:40;5.60;99.90
19224;DHT22;9746;47.180;9.776;2024-03-06T16:16:10;5.70;99.90
19224;DHT22;9746;47.180;9.776;2024-03-06T16:18:40;5.60;99.90
19224;DHT22;9746;47.180;9.776;2024-03-06T16:21:12;5.60;99.90
19224;DHT22;9746;47.180;9.776;2024-03-06T16:23:39;5.60;99.90
19224;DHT22;9746;47.180;9.776;2024-03-06T16:26:09;5.50;99.90
19224;DHT22;9746;47.180;9.776;2024-03-06T16:28:40;5.50;99.90
19224;DHT22;9746;47.180;9.776;2024-03-06T16:31:10;5.50;99.90
19224;DHT22;9746;47.180;9.776;2024-03-06T16:33:42;5.50;99.90
19224;DHT22;9746;47.180;9.776;2024-03-06T16:36:12;5.50;99.90
19224;DHT22;9746;47.180;9.776;2024-03-06T16:38:40;5.50;99.90
19224;DHT22;9746;47.180;9.776;2024-03-06T16:41:16;5.50;99.90
19224;DHT22;9746;47.180;9.776;2024-03-06T16:43:45;5.50;99.90
19224;DHT22;9746;47.180;9.776;2024-03-06T16:46:40;5.50;99.90
19224;DHT22;9746;47.180;9.776;2024-03-06T16:49:09;5.50;99.90
19224;DHT22;9746;47.180;9.776;2024-03-06T16:51:45;5.50;99.90
19224;DHT22;9746;47.180;9.776;2024-03-06T16:54:14;5.50;99.90
19224;DHT22;9746;47.180;9.776;2024-03-06T16:56:54;5.50;99.90
19224;DHT22;9746;47.180;9.776;2024-03-06T16:59:21;5.50;99.90
19224;DHT22;9746;47.180;9.776;2024-03-06T17:02:13;5.40;99.90
19224;DHT22;9746;47.180;9.776;2024-03-06T17:04:42;5.40;99.90
19224;DHT22;9746;47.180;9.776;2024-03-06T17:07:26;5.30;99.90
19224;DHT22;9746;47.180;9.776;2024-03-06T17:09:53;5.20;99.90
19224;DHT22;9746;47.180;9.776;2024-03-06T17:12:21;5.10;99.90
19224;DHT22;9746;47.180;9.776;2024-03-06T17:14:48;5.10;99.90
19224;DHT22;9746;47.180;9.776;2024-03-06T17:17:23;5.10;99.90
19224;DHT22;9746;47.180;9.776;2024-03-06T17:19:56;5.00;99.90
19224;DHT22;9746;47.180;9.776;2024-03-06T17:22:41;5.00;99.90
19224;DHT22;9746;47.180;9.776;2024-03-06T17:25:11;5.00;99.90
19224;DHT22;9746;47.180;9.776;2024-03-06T17:27:39;5.00;99.90
19224;DHT22;9746;47.180;9.776;2024-03-06T17:30:07;5.00;99.90
19224;DHT22;9746;47.180;9.776;2024-03-06T17:35:31;5.00;99.90
19224;DHT22;9746;47.180;9.776;2024-03-06T17:37:59;5.00;99.90
19224;DHT22;9746;47.180;9.776;2024-03-06T17:40:34;5.00;99.90
19224;DHT22;9746;47.180;9.776;2024-03-06T17:43:02;5.00;99.90